sensor_id;sensor_type;location;lat;lon;timestamp;P1;durP1;ratioP1;P2;durP2;ratioP2
14619;SDS011;32125;48.518;9.050;2023-06-26T00:00:26;8.33;;;7.33;;
14619;SDS011;32125;48.518;9.050;2023-06-26T00:02:51;7.80;;;7.00;;
14619;SDS011;32125;48.518;9.050;2023-06-26T00:05:22;7.93;;;7.13;;
14619;SDS011;32125;48.518;9.050;2023-06-26T00:07:47;7.27;;;6.57;;
14619;SDS011;32125;48.518;9.050;2023-06-26T00:10:13;8.67;;;7.17;;
14619;SDS011;32125;48.518;9.050;2023-06-26T00:12:42;7.70;;;7.00;;
14619;SDS011;32125;48.518;9.050;2023-06-26T00:15:07;7.87;;;7.13;;
14619;SDS011;32125;48.518;9.050;2023-06-26T00:17:33;9.33;;;7.10;;
14619;SDS011;32125;48.518;9.050;2023-06-26T00:20:02;8.00;;;7.20;;
14619;SDS011;32125;48.518;9.050;2023-06-26T00:22:30;7.83;;;6.90;;
14619;SDS011;32125;48.518;9.050;2023-06-26T00:24:58;9.50;;;6.97;;
14619;SDS011;32125;48.518;9.050;2023-06-26T00:27:28;7.60;;;6.90;;
14619;SDS011;32125;48.518;9.050;2023-06-26T00:29:54;8.37;;;7.47;;
14619;SDS011;32125;48.518;9.050;2023-06-26T00:32:20;9.40;;;7.53;;
14619;SDS011;32125;48.518;9.050;2023-06-26T00:34:45;8.63;;;7.77;;
14619;SDS011;32125;48.518;9.050;2023-06-26T00:37:13;8.63;;;7.67;;
14619;SDS011;32125;48.518;9.050;2023-06-26T00:39:39;8.43;;;7.63;;
14619;SDS011;32125;48.518;9.050;2023-06-26T00:42:05;9.07;;;7.90;;
14619;SDS011;32125;48.518;9.050;2023-06-26T00:44:31;7.73;;;6.93;;
14619;SDS011;32125;48.518;9.050;2023-06-26T00:46:57;7.93;;;7.13;;
14619;SDS011;32125;48.518;9.050;2023-06-26T00:49:26;10.23;;;7.03;;
14619;SDS011;32125;48.518;9.050;2023-06-26T00:51:54;9.03;;;7.30;;
14619;SDS011;32125;48.518;9.050;2023-06-26T00:54:23;8.40;;;7.50;;
14619;SDS011;32125;48.518;9.050;2023-06-26T00:56:51;8.57;;;7.57;;
14619;SDS011;32125;48.518;9.050;2023-06-26T00:59:16;9.70;;;7.83;;
14619;SDS011;32125;48.518;9.050;2023-06-26T01:01:42;8.07;;;7.27;;
14619;SDS011;32125;48.518;9.050;2023-06-26T01:04:08;11.07;;;7.30;;
14619;SDS011;32125;48.518;9.050;2023-06-26T01:06:42;7.90;;;7.00;;
14619;SDS011;32125;48.518;9.050;2023-06-26T01:09:17;8.70;;;7.80;;
14619;SDS011;32125;48.518;9.050;2023-06-26T01:11:44;8.20;;;7.40;;
14619;SDS011;32125;48.518;9.050;2023-06-26T01:14:12;8.70;;;7.20;;
14619;SDS011;32125;48.518;9.050;2023-06-26T01:16:41;7.90;;;7.03;;
14619;SDS011;32125;48.518;9.050;2023-06-26T01:19:25;8.17;;;7.37;;
14619;SDS011;32125;48.518;9.050;2023-06-26T01:27:48;10.37;;;7.50;;
14619;SDS011;32125;48.518;9.050;2023-06-26T01:30:14;8.17;;;7.37;;
14619;SDS011;32125;48.518;9.050;2023-06-26T01:32:44;8.60;;;7.30;;
14619;SDS011;32125;48.518;9.050;2023-06-26T01:35:11;8.20;;;7.37;;
14619;SDS011;32125;48.518;9.050;2023-06-26T01:37:37;7.70;;;6.90;;
14619;SDS011;32125;48.518;9.050;2023-06-26T01:40:03;8.97;;;8.03;;
14619;SDS011;32125;48.518;9.050;2023-06-26T01:42:31;9.23;;;8.27;;
14619;SDS011;32125;48.518;9.050;2023-06-26T01:44:57;9.03;;;8.00;;
14619;SDS011;32125;48.518;9.050;2023-06-26T01:47:30;8.93;;;7.33;;
14619;SDS011;32125;48.518;9.050;2023-06-26T01:50:09;10.23;;;7.83;;
14619;SDS011;32125;48.518;9.050;2023-06-26T01:52:41;8.27;;;7.47;;
14619;SDS011;32125;48.518;9.050;2023-06-26T01:55:23;9.00;;;8.10;;
14619;SDS011;32125;48.518;9.050;2023-06-26T01:58:18;8.27;;;7.40;;
14619;SDS011;32125;48.518;9.050;2023-06-26T02:00:46;8.30;;;7.50;;
14619;SDS011;32125;48.518;9.050;2023-06-26T02:03:15;9.50;;;7.50;;
14619;SDS011;32125;48.518;9.050;2023-06-26T02:05:45;8.60;;;7.77;;
14619;SDS011;32125;48.518;9.050;2023-06-26T02:08:13;8.87;;;7.70;;
14619;SDS011;32125;48.518;9.050;2023-06-26T02:10:41;8.07;;;7.27;;
14619;SDS011;32125;48.518;9.050;2023-06-26T02:13:09;8.63;;;7.73;;
14619;SDS011;32125;48.518;9.050;2023-06-26T02:15:35;9.67;;;7.77;;
14619;SDS011;32125;48.518;9.050;2023-06-26T02:18:01;8.50;;;7.70;;
14619;SDS011;32125;48.518;9.050;2023-06-26T02:20:26;8.93;;;7.30;;
14619;SDS011;32125;48.518;9.050;2023-06-26T02:22:52;8.73;;;7.60;;
14619;SDS011;32125;48.518;9.050;2023-06-26T02:25:17;8.90;;;8.00;;
14619;SDS011;32125;48.518;9.050;2023-06-26T02:27:45;8.77;;;7.80;;
14619;SDS011;32125;48.518;9.050;2023-06-26T02:30:11;8.30;;;7.50;;
14619;SDS011;32125;48.518;9.050;2023-06-26T02:32:39;10.07;;;7.83;;
14619;SDS011;32125;48.518;9.050;2023-06-26T02:35:05;10.40;;;8.00;;
14619;SDS011;32125;48.518;9.050;2023-06-26T02:37:31;8.50;;;7.70;;
14619;SDS011;32125;48.518;9.050;2023-06-26T02:39:57;9.83;;;7.73;;
14619;SDS011;32125;48.518;9.050;2023-06-26T02:42:22;8.00;;;7.27;;
14619;SDS011;32125;48.518;9.050;2023-06-26T02:44:48;9.07;;;7.70;;
14619;SDS011;32125;48.518;9.050;2023-06-26T02:47:14;9.30;;;8.10;;
14619;SDS011;32125;48.518;9.050;2023-06-26T02:49:44;8.87;;;7.03;;
14619;SDS011;32125;48.518;9.050;2023-06-26T02:52:09;9.57;;;8.20;;
14619;SDS011;32125;48.518;9.050;2023-06-26T02:54:35;8.50;;;7.60;;
14619;SDS011;32125;48.518;9.050;2023-06-26T02:57:03;8.47;;;7.67;;
14619;SDS011;32125;48.518;9.050;2023-06-26T02:59:32;8.60;;;7.67;;
14619;SDS011;32125;48.518;9.050;2023-06-26T03:01:58;9.17;;;8.17;;
14619;SDS011;32125;48.518;9.050;2023-06-26T03:04:24;10.40;;;7.77;;
14619;SDS011;32125;48.518;9.050;2023-06-26T03:06:49;8.97;;;8.07;;
14619;SDS011;32125;48.518;9.050;2023-06-26T03:09:15;9.17;;;8.10;;
14619;SDS011;32125;48.518;9.050;2023-06-26T03:11:41;9.20;;;8.30;;
14619;SDS011;32125;48.518;9.050;2023-06-26T03:14:07;8.97;;;8.07;;
14619;SDS011;32125;48.518;9.050;2023-06-26T03:16:33;9.73;;;7.90;;
14619;SDS011;32125;48.518;9.050;2023-06-26T03:18:59;11.03;;;8.23;;
14619;SDS011;32125;48.518;9.050;2023-06-26T03:21:24;9.27;;;8.37;;
14619;SDS011;32125;48.518;9.050;2023-06-26T03:23:52;9.53;;;7.93;;
14619;SDS011;32125;48.518;9.050;2023-06-26T03:26:18;9.17;;;8.27;;
14619;SDS011;32125;48.518;9.050;2023-06-26T03:28:43;9.30;;;8.40;;
14619;SDS011;32125;48.518;9.050;2023-06-26T03:31:09;9.63;;;8.00;;
14619;SDS011;32125;48.518;9.050;2023-06-26T03:33:38;10.33;;;8.40;;
14619;SDS011;32125;48.518;9.050;2023-06-26T03:36:06;9.67;;;7.80;;
14619;SDS011;32125;48.518;9.050;2023-06-26T03:38:34;8.97;;;7.70;;
14619;SDS011;32125;48.518;9.050;2023-06-26T03:40:59;11.00;;;8.37;;
14619;SDS011;32125;48.518;9.050;2023-06-26T03:43:25;8.83;;;7.93;;
14619;SDS011;32125;48.518;9.050;2023-06-26T03:45:53;8.90;;;8.00;;
14619;SDS011;32125;48.518;9.050;2023-06-26T03:48:19;10.43;;;8.10;;
14619;SDS011;32125;48.518;9.050;2023-06-26T03:50:47;8.67;;;7.77;;
14619;SDS011;32125;48.518;9.050;2023-06-26T03:53:13;9.37;;;8.40;;
14619;SDS011;32125;48.518;9.050;2023-06-26T03:55:38;8.90;;;8.00;;
14619;SDS011;32125;48.518;9.050;2023-06-26T03:58:04;8.77;;;7.63;;
14619;SDS011;32125;48.518;9.050;2023-06-26T04:00:30;9.77;;;7.97;;
14619;SDS011;32125;48.518;9.050;2023-06-26T04:02:56;9.20;;;8.13;;
14619;SDS011;32125;48.518;9.050;2023-06-26T04:05:22;9.30;;;7.80;;
14619;SDS011;32125;48.518;9.050;2023-06-26T04:07:52;9.37;;;8.00;;
14619;SDS011;32125;48.518;9.050;2023-06-26T04:10:17;8.53;;;7.57;;
14619;SDS011;32125;48.518;9.050;2023-06-26T04:12:44;9.47;;;8.00;;
14619;SDS011;32125;48.518;9.050;2023-06-26T04:15:10;8.90;;;7.60;;
14619;SDS011;32125;48.518;9.050;2023-06-26T04:17:36;8.73;;;7.40;;
14619;SDS011;32125;48.518;9.050;2023-06-26T04:20:04;8.97;;;7.50;;
14619;SDS011;32125;48.518;9.050;2023-06-26T04:22:31;10.13;;;7.77;;
14619;SDS011;32125;48.518;9.050;2023-06-26T04:24:57;9.37;;;7.60;;
14619;SDS011;32125;48.518;9.050;2023-06-26T04:27:25;8.80;;;7.87;;
14619;SDS011;32125;48.518;9.050;2023-06-26T04:29:51;8.83;;;7.40;;
14619;SDS011;32125;48.518;9.050;2023-06-26T04:32:16;9.57;;;7.63;;
14619;SDS011;32125;48.518;9.050;2023-06-26T04:34:42;10.67;;;8.07;;
14619;SDS011;32125;48.518;9.050;2023-06-26T04:37:08;8.57;;;7.20;;
14619;SDS011;32125;48.518;9.050;2023-06-26T04:39:36;9.67;;;7.50;;
14619;SDS011;32125;48.518;9.050;2023-06-26T04:42:07;8.67;;;7.30;;
14619;SDS011;32125;48.518;9.050;2023-06-26T04:44:33;8.93;;;7.33;;
14619;SDS011;32125;48.518;9.050;2023-06-26T04:46:59;14.87;;;8.80;;
14619;SDS011;32125;48.518;9.050;2023-06-26T04:49:27;9.70;;;8.70;;
14619;SDS011;32125;48.518;9.050;2023-06-26T04:51:55;12.30;;;8.83;;
14619;SDS011;32125;48.518;9.050;2023-06-26T04:54:21;10.37;;;8.67;;
14619;SDS011;32125;48.518;9.050;2023-06-26T04:56:47;10.30;;;9.20;;
14619;SDS011;32125;48.518;9.050;2023-06-26T04:59:13;12.63;;;9.20;;
14619;SDS011;32125;48.518;9.050;2023-06-26T05:01:41;10.57;;;9.30;;
14619;SDS011;32125;48.518;9.050;2023-06-26T05:04:13;10.63;;;9.10;;
14619;SDS011;32125;48.518;9.050;2023-06-26T05:06:40;12.53;;;9.00;;
14619;SDS011;32125;48.518;9.050;2023-06-26T05:09:06;10.73;;;8.67;;
14619;SDS011;32125;48.518;9.050;2023-06-26T05:11:32;11.07;;;9.20;;
14619;SDS011;32125;48.518;9.050;2023-06-26T05:14:02;11.60;;;8.73;;
14619;SDS011;32125;48.518;9.050;2023-06-26T05:16:32;13.40;;;8.83;;
14619;SDS011;32125;48.518;9.050;2023-06-26T05:18:59;10.70;;;8.07;;
14619;SDS011;32125;48.518;9.050;2023-06-26T05:21:27;10.80;;;8.33;;
14619;SDS011;32125;48.518;9.050;2023-06-26T05:23:56;10.00;;;8.37;;
14619;SDS011;32125;48.518;9.050;2023-06-26T05:26:23;9.83;;;8.83;;
14619;SDS011;32125;48.518;9.050;2023-06-26T05:28:54;9.90;;;8.90;;
14619;SDS011;32125;48.518;9.050;2023-06-26T05:31:22;10.37;;;8.37;;
14619;SDS011;32125;48.518;9.050;2023-06-26T05:33:50;9.77;;;8.27;;
14619;SDS011;32125;48.518;9.050;2023-06-26T05:36:17;11.23;;;8.63;;
14619;SDS011;32125;48.518;9.050;2023-06-26T05:38:47;10.93;;;8.10;;
14619;SDS011;32125;48.518;9.050;2023-06-26T05:41:15;11.70;;;8.67;;
14619;SDS011;32125;48.518;9.050;2023-06-26T05:43:41;10.50;;;7.93;;
14619;SDS011;32125;48.518;9.050;2023-06-26T05:46:07;9.57;;;8.20;;
14619;SDS011;32125;48.518;9.050;2023-06-26T05:48:36;9.67;;;8.33;;
14619;SDS011;32125;48.518;9.050;2023-06-26T05:51:04;9.67;;;7.97;;
14619;SDS011;32125;48.518;9.050;2023-06-26T05:53:30;10.40;;;8.10;;
14619;SDS011;32125;48.518;9.050;2023-06-26T05:55:57;10.33;;;7.80;;
14619;SDS011;32125;48.518;9.050;2023-06-26T05:58:23;9.30;;;7.63;;
14619;SDS011;32125;48.518;9.050;2023-06-26T06:00:52;8.83;;;7.83;;
14619;SDS011;32125;48.518;9.050;2023-06-26T06:03:18;10.97;;;8.40;;
14619;SDS011;32125;48.518;9.050;2023-06-26T06:05:46;10.23;;;8.40;;
14619;SDS011;32125;48.518;9.050;2023-06-26T06:08:15;9.50;;;7.83;;
14619;SDS011;32125;48.518;9.050;2023-06-26T06:10:41;9.13;;;7.83;;
14619;SDS011;32125;48.518;9.050;2023-06-26T06:13:11;11.23;;;7.53;;
14619;SDS011;32125;48.518;9.050;2023-06-26T06:15:37;9.37;;;7.67;;
14619;SDS011;32125;48.518;9.050;2023-06-26T06:18:02;8.93;;;7.10;;
14619;SDS011;32125;48.518;9.050;2023-06-26T06:20:28;10.37;;;7.47;;
14619;SDS011;32125;48.518;9.050;2023-06-26T06:22:54;10.63;;;8.20;;
14619;SDS011;32125;48.518;9.050;2023-06-26T06:25:20;10.50;;;7.60;;
14619;SDS011;32125;48.518;9.050;2023-06-26T06:27:46;8.53;;;7.63;;
14619;SDS011;32125;48.518;9.050;2023-06-26T06:30:12;8.97;;;7.33;;
14619;SDS011;32125;48.518;9.050;2023-06-26T06:32:40;9.50;;;7.97;;
14619;SDS011;32125;48.518;9.050;2023-06-26T06:35:06;9.10;;;7.80;;
14619;SDS011;32125;48.518;9.050;2023-06-26T06:37:38;7.67;;;6.87;;
14619;SDS011;32125;48.518;9.050;2023-06-26T06:40:04;10.68;;;8.02;;
14619;SDS011;32125;48.518;9.050;2023-06-26T06:42:31;7.82;;;6.97;;
14619;SDS011;32125;48.518;9.050;2023-06-26T06:44:58;9.43;;;7.05;;
14619;SDS011;32125;48.518;9.050;2023-06-26T06:47:24;9.48;;;7.10;;
14619;SDS011;32125;48.518;9.050;2023-06-26T06:49:49;7.32;;;6.55;;
14619;SDS011;32125;48.518;9.050;2023-06-26T06:52:17;8.55;;;6.82;;
14619;SDS011;32125;48.518;9.050;2023-06-26T06:54:53;7.97;;;6.50;;
14619;SDS011;32125;48.518;9.050;2023-06-26T06:57:20;9.02;;;6.50;;
14619;SDS011;32125;48.518;9.050;2023-06-26T06:59:49;8.48;;;6.53;;
14619;SDS011;32125;48.518;9.050;2023-06-26T07:02:18;6.93;;;6.30;;
14619;SDS011;32125;48.518;9.050;2023-06-26T07:04:47;7.82;;;6.50;;
14619;SDS011;32125;48.518;9.050;2023-06-26T07:07:13;7.25;;;6.30;;
14619;SDS011;32125;48.518;9.050;2023-06-26T07:09:41;6.38;;;5.88;;
14619;SDS011;32125;48.518;9.050;2023-06-26T07:12:08;6.88;;;6.20;;
14619;SDS011;32125;48.518;9.050;2023-06-26T07:14:34;8.40;;;6.53;;
14619;SDS011;32125;48.518;9.050;2023-06-26T07:17:00;6.28;;;5.68;;
14619;SDS011;32125;48.518;9.050;2023-06-26T07:19:26;6.38;;;5.78;;
14619;SDS011;32125;48.518;9.050;2023-06-26T07:21:52;6.78;;;5.93;;
14619;SDS011;32125;48.518;9.050;2023-06-26T07:24:21;7.38;;;5.50;;
14619;SDS011;32125;48.518;9.050;2023-06-26T07:26:47;10.40;;;6.20;;
14619;SDS011;32125;48.518;9.050;2023-06-26T07:29:13;7.60;;;5.63;;
14619;SDS011;32125;48.518;9.050;2023-06-26T07:31:43;5.97;;;5.38;;
14619;SDS011;32125;48.518;9.050;2023-06-26T07:34:10;7.32;;;6.07;;
14619;SDS011;32125;48.518;9.050;2023-06-26T07:36:36;6.30;;;5.35;;
14619;SDS011;32125;48.518;9.050;2023-06-26T07:39:04;6.43;;;5.30;;
14619;SDS011;32125;48.518;9.050;2023-06-26T07:41:30;9.38;;;5.45;;
14619;SDS011;32125;48.518;9.050;2023-06-26T07:43:59;6.07;;;5.47;;
14619;SDS011;32125;48.518;9.050;2023-06-26T07:46:25;6.03;;;5.25;;
14619;SDS011;32125;48.518;9.050;2023-06-26T07:48:51;6.97;;;5.32;;
14619;SDS011;32125;48.518;9.050;2023-06-26T07:51:16;25.10;;;6.10;;
14619;SDS011;32125;48.518;9.050;2023-06-26T07:53:46;5.40;;;4.80;;
14619;SDS011;32125;48.518;9.050;2023-06-26T07:56:12;5.60;;;5.10;;
14619;SDS011;32125;48.518;9.050;2023-06-26T07:58:38;5.80;;;5.00;;
14619;SDS011;32125;48.518;9.050;2023-06-26T08:01:04;5.60;;;5.10;;
14619;SDS011;32125;48.518;9.050;2023-06-26T08:03:29;5.78;;;5.20;;
14619;SDS011;32125;48.518;9.050;2023-06-26T08:05:55;5.90;;;5.40;;
14619;SDS011;32125;48.518;9.050;2023-06-26T08:08:22;6.35;;;5.32;;
14619;SDS011;32125;48.518;9.050;2023-06-26T08:10:48;8.73;;;5.15;;
14619;SDS011;32125;48.518;9.050;2023-06-26T08:13:20;5.30;;;4.90;;
14619;SDS011;32125;48.518;9.050;2023-06-26T08:15:46;6.60;;;4.70;;
14619;SDS011;32125;48.518;9.050;2023-06-26T08:18:11;8.43;;;5.00;;
14619;SDS011;32125;48.518;9.050;2023-06-26T08:20:40;5.00;;;4.60;;
14619;SDS011;32125;48.518;9.050;2023-06-26T08:23:06;5.50;;;4.93;;
14619;SDS011;32125;48.518;9.050;2023-06-26T08:25:32;5.13;;;4.47;;
14619;SDS011;32125;48.518;9.050;2023-06-26T08:28:00;4.88;;;4.47;;
14619;SDS011;32125;48.518;9.050;2023-06-26T08:30:28;5.65;;;4.80;;
14619;SDS011;32125;48.518;9.050;2023-06-26T08:32:57;8.35;;;4.82;;
14619;SDS011;32125;48.518;9.050;2023-06-26T08:35:23;5.13;;;4.47;;
14619;SDS011;32125;48.518;9.050;2023-06-26T08:37:52;5.07;;;4.57;;
14619;SDS011;32125;48.518;9.050;2023-06-26T08:40:20;4.85;;;4.45;;
14619;SDS011;32125;48.518;9.050;2023-06-26T08:42:46;5.30;;;4.72;;
14619;SDS011;32125;48.518;9.050;2023-06-26T08:45:17;5.22;;;4.75;;
14619;SDS011;32125;48.518;9.050;2023-06-26T08:47:44;4.80;;;4.40;;
14619;SDS011;32125;48.518;9.050;2023-06-26T08:50:10;4.97;;;4.43;;
14619;SDS011;32125;48.518;9.050;2023-06-26T08:52:43;5.38;;;4.45;;
14619;SDS011;32125;48.518;9.050;2023-06-26T08:55:20;5.30;;;4.75;;
14619;SDS011;32125;48.518;9.050;2023-06-26T08:57:51;4.65;;;4.32;;
14619;SDS011;32125;48.518;9.050;2023-06-26T09:00:18;5.38;;;4.18;;
14619;SDS011;32125;48.518;9.050;2023-06-26T09:02:45;4.78;;;4.38;;
14619;SDS011;32125;48.518;9.050;2023-06-26T09:05:11;5.38;;;4.85;;
14619;SDS011;32125;48.518;9.050;2023-06-26T09:07:37;4.68;;;4.25;;
14619;SDS011;32125;48.518;9.050;2023-06-26T09:10:03;4.70;;;4.30;;
14619;SDS011;32125;48.518;9.050;2023-06-26T09:12:31;4.93;;;4.50;;
14619;SDS011;32125;48.518;9.050;2023-06-26T09:14:57;4.35;;;3.95;;
14619;SDS011;32125;48.518;9.050;2023-06-26T09:17:33;4.68;;;4.30;;
14619;SDS011;32125;48.518;9.050;2023-06-26T09:20:03;12.63;;;4.63;;
14619;SDS011;32125;48.518;9.050;2023-06-26T09:22:32;7.50;;;4.40;;
14619;SDS011;32125;48.518;9.050;2023-06-26T09:25:00;5.00;;;4.22;;
14619;SDS011;32125;48.518;9.050;2023-06-26T09:27:26;4.75;;;4.35;;
14619;SDS011;32125;48.518;9.050;2023-06-26T09:29:51;5.95;;;4.70;;
14619;SDS011;32125;48.518;9.050;2023-06-26T09:32:18;6.22;;;4.25;;
14619;SDS011;32125;48.518;9.050;2023-06-26T09:34:46;4.60;;;4.20;;
14619;SDS011;32125;48.518;9.050;2023-06-26T09:37:15;8.10;;;4.32;;
14619;SDS011;32125;48.518;9.050;2023-06-26T09:39:41;4.68;;;4.30;;
14619;SDS011;32125;48.518;9.050;2023-06-26T09:42:07;5.90;;;4.15;;
14619;SDS011;32125;48.518;9.050;2023-06-26T09:44:33;6.28;;;4.50;;
14619;SDS011;32125;48.518;9.050;2023-06-26T09:47:01;4.93;;;4.45;;
14619;SDS011;32125;48.518;9.050;2023-06-26T09:49:29;5.22;;;4.40;;
14619;SDS011;32125;48.518;9.050;2023-06-26T09:52:00;5.10;;;4.60;;
14619;SDS011;32125;48.518;9.050;2023-06-26T09:54:27;4.40;;;4.00;;
14619;SDS011;32125;48.518;9.050;2023-06-26T09:56:55;8.65;;;4.55;;
14619;SDS011;32125;48.518;9.050;2023-06-26T09:59:32;4.78;;;4.38;;
14619;SDS011;32125;48.518;9.050;2023-06-26T10:01:58;5.03;;;4.63;;
14619;SDS011;32125;48.518;9.050;2023-06-26T10:04:25;4.88;;;4.35;;
14619;SDS011;32125;48.518;9.050;2023-06-26T10:06:53;4.85;;;4.35;;
14619;SDS011;32125;48.518;9.050;2023-06-26T10:09:21;5.63;;;4.50;;
14619;SDS011;32125;48.518;9.050;2023-06-26T10:14:35;6.78;;;4.40;;
14619;SDS011;32125;48.518;9.050;2023-06-26T10:17:01;5.68;;;4.50;;
14619;SDS011;32125;48.518;9.050;2023-06-26T10:19:32;5.35;;;4.13;;
14619;SDS011;32125;48.518;9.050;2023-06-26T10:21:59;5.53;;;4.25;;
14619;SDS011;32125;48.518;9.050;2023-06-26T10:24:28;5.07;;;4.65;;
14619;SDS011;32125;48.518;9.050;2023-06-26T10:27:31;4.97;;;4.57;;
14619;SDS011;32125;48.518;9.050;2023-06-26T10:30:00;5.95;;;4.55;;
14619;SDS011;32125;48.518;9.050;2023-06-26T10:32:30;4.75;;;4.22;;
14619;SDS011;32125;48.518;9.050;2023-06-26T10:35:04;4.88;;;4.40;;
14619;SDS011;32125;48.518;9.050;2023-06-26T10:37:44;4.80;;;4.40;;
14619;SDS011;32125;48.518;9.050;2023-06-26T10:40:20;4.38;;;4.07;;
14619;SDS011;32125;48.518;9.050;2023-06-26T10:42:49;5.18;;;4.60;;
14619;SDS011;32125;48.518;9.050;2023-06-26T10:47:47;4.95;;;4.55;;
14619;SDS011;32125;48.518;9.050;2023-06-26T10:50:27;5.15;;;4.75;;
14619;SDS011;32125;48.518;9.050;2023-06-26T10:55:42;4.88;;;4.50;;
14619;SDS011;32125;48.518;9.050;2023-06-26T11:03:59;5.75;;;5.15;;
14619;SDS011;32125;48.518;9.050;2023-06-26T11:06:28;6.65;;;4.82;;
14619;SDS011;32125;48.518;9.050;2023-06-26T11:09:00;6.03;;;5.20;;
14619;SDS011;32125;48.518;9.050;2023-06-26T11:14:23;5.15;;;4.75;;
14619;SDS011;32125;48.518;9.050;2023-06-26T11:16:53;7.63;;;5.43;;
14619;SDS011;32125;48.518;9.050;2023-06-26T11:19:21;5.20;;;4.72;;
14619;SDS011;32125;48.518;9.050;2023-06-26T11:21:47;5.70;;;5.20;;
14619;SDS011;32125;48.518;9.050;2023-06-26T11:24:13;6.00;;;5.40;;
14619;SDS011;32125;48.518;9.050;2023-06-26T11:26:41;5.60;;;5.10;;
14619;SDS011;32125;48.518;9.050;2023-06-26T11:29:10;5.55;;;5.07;;
14619;SDS011;32125;48.518;9.050;2023-06-26T11:31:39;5.40;;;4.90;;
14619;SDS011;32125;48.518;9.050;2023-06-26T11:34:10;5.82;;;5.30;;
14619;SDS011;32125;48.518;9.050;2023-06-26T11:36:38;8.93;;;5.18;;
14619;SDS011;32125;48.518;9.050;2023-06-26T11:39:08;6.03;;;4.80;;
14619;SDS011;32125;48.518;9.050;2023-06-26T11:41:35;5.80;;;5.30;;
14619;SDS011;32125;48.518;9.050;2023-06-26T11:46:30;5.95;;;5.35;;
14619;SDS011;32125;48.518;9.050;2023-06-26T11:48:57;6.32;;;5.50;;
14619;SDS011;32125;48.518;9.050;2023-06-26T11:51:23;6.15;;;5.55;;
14619;SDS011;32125;48.518;9.050;2023-06-26T11:53:54;6.68;;;5.18;;
14619;SDS011;32125;48.518;9.050;2023-06-26T11:56:22;5.65;;;5.15;;
14619;SDS011;32125;48.518;9.050;2023-06-26T11:59:02;6.28;;;5.15;;
14619;SDS011;32125;48.518;9.050;2023-06-26T12:01:35;6.30;;;4.95;;
14619;SDS011;32125;48.518;9.050;2023-06-26T12:04:07;5.30;;;4.90;;
14619;SDS011;32125;48.518;9.050;2023-06-26T12:06:37;5.72;;;5.22;;
14619;SDS011;32125;48.518;9.050;2023-06-26T12:09:09;5.60;;;5.00;;
14619;SDS011;32125;48.518;9.050;2023-06-26T12:11:42;5.95;;;5.00;;
14619;SDS011;32125;48.518;9.050;2023-06-26T12:14:10;5.75;;;4.65;;
14619;SDS011;32125;48.518;9.050;2023-06-26T12:16:38;5.03;;;4.63;;
14619;SDS011;32125;48.518;9.050;2023-06-26T12:19:07;5.93;;;5.30;;
14619;SDS011;32125;48.518;9.050;2023-06-26T12:24:01;5.65;;;5.15;;
14619;SDS011;32125;48.518;9.050;2023-06-26T12:26:27;6.05;;;5.55;;
14619;SDS011;32125;48.518;9.050;2023-06-26T12:29:03;6.03;;;5.43;;
14619;SDS011;32125;48.518;9.050;2023-06-26T12:31:33;7.30;;;5.38;;
14619;SDS011;32125;48.518;9.050;2023-06-26T12:34:08;5.35;;;4.85;;
14619;SDS011;32125;48.518;9.050;2023-06-26T12:36:52;8.05;;;5.30;;
14619;SDS011;32125;48.518;9.050;2023-06-26T12:39:19;6.47;;;5.18;;
14619;SDS011;32125;48.518;9.050;2023-06-26T12:44:28;5.30;;;4.90;;
14619;SDS011;32125;48.518;9.050;2023-06-26T12:46:58;8.27;;;5.45;;
14619;SDS011;32125;48.518;9.050;2023-06-26T12:49:34;5.95;;;5.43;;
14619;SDS011;32125;48.518;9.050;2023-06-26T12:52:06;5.38;;;4.88;;
14619;SDS011;32125;48.518;9.050;2023-06-26T12:54:34;5.85;;;5.15;;
14619;SDS011;32125;48.518;9.050;2023-06-26T12:57:00;5.75;;;5.25;;
14619;SDS011;32125;48.518;9.050;2023-06-26T12:59:26;9.05;;;5.65;;
14619;SDS011;32125;48.518;9.050;2023-06-26T13:01:52;6.47;;;5.78;;
14619;SDS011;32125;48.518;9.050;2023-06-26T13:04:17;5.68;;;5.20;;
14619;SDS011;32125;48.518;9.050;2023-06-26T13:06:44;6.53;;;4.80;;
14619;SDS011;32125;48.518;9.050;2023-06-26T13:09:10;8.27;;;5.70;;
14619;SDS011;32125;48.518;9.050;2023-06-26T13:11:36;6.28;;;5.68;;
14619;SDS011;32125;48.518;9.050;2023-06-26T13:14:07;6.75;;;5.63;;
14619;SDS011;32125;48.518;9.050;2023-06-26T13:16:33;5.95;;;5.32;;
14619;SDS011;32125;48.518;9.050;2023-06-26T13:18:59;7.50;;;5.38;;
14619;SDS011;32125;48.518;9.050;2023-06-26T13:21:27;7.22;;;5.63;;
14619;SDS011;32125;48.518;9.050;2023-06-26T13:23:53;6.80;;;5.60;;
14619;SDS011;32125;48.518;9.050;2023-06-26T13:26:19;6.97;;;5.35;;
14619;SDS011;32125;48.518;9.050;2023-06-26T13:28:46;6.43;;;5.38;;
14619;SDS011;32125;48.518;9.050;2023-06-26T13:31:13;8.27;;;5.40;;
14619;SDS011;32125;48.518;9.050;2023-06-26T13:33:39;5.85;;;5.25;;
14619;SDS011;32125;48.518;9.050;2023-06-26T13:36:05;5.80;;;5.30;;
14619;SDS011;32125;48.518;9.050;2023-06-26T13:38:33;7.32;;;5.53;;
14619;SDS011;32125;48.518;9.050;2023-06-26T13:40:59;6.28;;;5.68;;
14619;SDS011;32125;48.518;9.050;2023-06-26T13:43:26;7.43;;;5.53;;
14619;SDS011;32125;48.518;9.050;2023-06-26T13:45:53;6.80;;;5.25;;
14619;SDS011;32125;48.518;9.050;2023-06-26T13:48:19;5.85;;;5.35;;
14619;SDS011;32125;48.518;9.050;2023-06-26T13:50:45;7.32;;;5.30;;
14619;SDS011;32125;48.518;9.050;2023-06-26T13:53:11;6.28;;;5.22;;
14619;SDS011;32125;48.518;9.050;2023-06-26T13:55:37;5.93;;;5.32;;
14619;SDS011;32125;48.518;9.050;2023-06-26T13:58:04;7.47;;;5.22;;
14619;SDS011;32125;48.518;9.050;2023-06-26T14:00:32;8.10;;;5.50;;
14619;SDS011;32125;48.518;9.050;2023-06-26T14:03:05;5.68;;;4.88;;
14619;SDS011;32125;48.518;9.050;2023-06-26T14:05:35;7.03;;;5.00;;
14619;SDS011;32125;48.518;9.050;2023-06-26T14:08:02;5.80;;;4.85;;
14619;SDS011;32125;48.518;9.050;2023-06-26T14:10:29;5.72;;;5.15;;
14619;SDS011;32125;48.518;9.050;2023-06-26T14:12:55;8.27;;;5.15;;
14619;SDS011;32125;48.518;9.050;2023-06-26T14:15:20;5.95;;;5.35;;
14619;SDS011;32125;48.518;9.050;2023-06-26T14:17:46;5.75;;;5.25;;
14619;SDS011;32125;48.518;9.050;2023-06-26T14:20:16;5.43;;;4.93;;
14619;SDS011;32125;48.518;9.050;2023-06-26T14:22:42;4.90;;;4.50;;
14619;SDS011;32125;48.518;9.050;2023-06-26T14:25:09;5.55;;;5.05;;
14619;SDS011;32125;48.518;9.050;2023-06-26T14:27:37;6.05;;;4.80;;
14619;SDS011;32125;48.518;9.050;2023-06-26T14:30:06;6.30;;;4.82;;
14619;SDS011;32125;48.518;9.050;2023-06-26T14:32:35;7.20;;;4.97;;
14619;SDS011;32125;48.518;9.050;2023-06-26T14:35:01;5.25;;;4.75;;
14619;SDS011;32125;48.518;9.050;2023-06-26T14:37:28;5.10;;;4.60;;
14619;SDS011;32125;48.518;9.050;2023-06-26T14:39:57;5.47;;;4.45;;
14619;SDS011;32125;48.518;9.050;2023-06-26T14:42:26;5.45;;;4.75;;
14619;SDS011;32125;48.518;9.050;2023-06-26T14:44:55;4.75;;;4.35;;
14619;SDS011;32125;48.518;9.050;2023-06-26T14:47:22;5.20;;;4.70;;
14619;SDS011;32125;48.518;9.050;2023-06-26T14:49:48;5.32;;;4.40;;
14619;SDS011;32125;48.518;9.050;2023-06-26T14:52:17;5.15;;;4.45;;
14619;SDS011;32125;48.518;9.050;2023-06-26T14:54:43;5.00;;;4.47;;
14619;SDS011;32125;48.518;9.050;2023-06-26T14:57:09;6.28;;;4.30;;
14619;SDS011;32125;48.518;9.050;2023-06-26T14:59:34;5.35;;;4.30;;
14619;SDS011;32125;48.518;9.050;2023-06-26T15:02:00;4.28;;;3.88;;
14619;SDS011;32125;48.518;9.050;2023-06-26T15:04:25;6.22;;;4.00;;
14619;SDS011;32125;48.518;9.050;2023-06-26T15:06:52;4.10;;;3.70;;
14619;SDS011;32125;48.518;9.050;2023-06-26T15:09:18;10.60;;;3.80;;
14619;SDS011;32125;48.518;9.050;2023-06-26T15:11:46;4.95;;;3.53;;
14619;SDS011;32125;48.518;9.050;2023-06-26T15:14:12;4.53;;;3.60;;
14619;SDS011;32125;48.518;9.050;2023-06-26T15:16:40;5.15;;;3.60;;
14619;SDS011;32125;48.518;9.050;2023-06-26T15:19:06;4.43;;;4.03;;